Time;durP1;ratioP1;P1;durP2;ratioP2;P2;SDS_P1;SDS_P2;PMS_P1;PMS_P2;Temp;Humidity;BMP_temperature;BMP_pressure;BME280_temperature;BME280_humidity;BME280_pressure;Samples;Min_cycle;Max_cycle;Signal;HPM_P1;HPM_P2
2022/07/15 00:01:44;;;;;;;8.73;2.95;;;15.70;97.70;;;;;;5109375;28;20027;-35
2022/07/15 00:04:10;;;;;;;6.22;2.40;;;15.60;98.10;;;;;;5109505;28;20379;-35
2022/07/15 00:06:35;;;;;;;5.50;1.92;;;15.60;98.20;;;;;;5108705;28;20027;-35
2022/07/15 00:09:01;;;;;;;5.68;2.20;;;15.50;98.30;;;;;;5110052;28;20023;-35
2022/07/15 00:11:27;;;;;;;7.13;2.53;;;15.50;98.50;;;;;;5108150;28;20019;-34
2022/07/15 00:13:52;;;;;;;5.53;2.30;;;15.40;98.60;;;;;;5109931;28;20039;-34
2022/07/15 00:16:18;;;;;;;5.07;2.33;;;15.40;98.60;;;;;;5109630;28;20015;-34
2022/07/15 00:18:43;;;;;;;8.88;2.58;;;15.40;98.70;;;;;;5108585;28;20305;-35
2022/07/15 00:21:09;;;;;;;7.40;2.58;;;15.40;98.70;;;;;;5109395;28;20368;-34
2022/07/15 00:23:35;;;;;;;7.47;3.20;;;15.40;99.00;;;;;;5108946;28;20079;-34
2022/07/15 00:26:01;;;;;;;6.82;2.55;;;15.30;98.90;;;;;;5109442;28;20036;-35
2022/07/15 00:28:28;;;;;;;8.75;2.53;;;15.40;99.20;;;;;;5108933;28;20023;-36
2022/07/15 00:30:55;;;;;;;5.80;1.95;;;15.40;99.30;;;;;;5109402;28;20084;-34
2022/07/15 00:33:20;;;;;;;6.65;2.53;;;15.30;99.10;;;;;;5108410;28;20036;-35
2022/07/15 00:35:46;;;;;;;5.93;2.25;;;15.40;99.20;;;;;;5108967;28;20024;-35
2022/07/15 00:38:12;;;;;;;8.63;2.75;;;15.40;99.30;;;;;;5109344;28;20027;-35
2022/07/15 00:40:49;;;;;;;4.93;1.98;;;15.30;99.40;;;;;;5108888;28;20023;-35
2022/07/15 00:43:16;;;;;;;4.70;1.80;;;15.30;99.40;;;;;;5108442;28;20421;-35
2022/07/15 00:45:42;;;;;;;5.60;2.20;;;15.30;99.50;;;;;;5109317;28;20028;-35
2022/07/15 00:48:08;;;;;;;8.07;2.03;;;15.30;99.70;;;;;;5109152;28;20023;-35
2022/07/15 00:50:34;;;;;;;5.97;2.17;;;15.20;99.80;;;;;;5108196;28;20031;-35
2022/07/15 00:53:20;;;;;;;5.18;1.88;;;15.20;99.80;;;;;;5108893;28;20022;-35
2022/07/15 00:55:47;;;;;;;4.15;1.92;;;15.20;99.80;;;;;;5108622;28;20038;-35
2022/07/15 00:58:23;;;;;;;5.32;1.75;;;15.20;99.90;;;;;;5108791;28;20032;-35
2022/07/15 01:00:50;;;;;;;4.55;1.85;;;15.20;99.90;;;;;;5108477;28;20421;-35
2022/07/15 01:03:19;;;;;;;6.07;2.08;;;15.30;99.90;;;;;;5108816;28;20483;-35
2022/07/15 01:05:46;;;;;;;6.13;1.83;;;15.20;99.90;;;;;;5108599;28;20471;-35
2022/07/15 01:08:12;;;;;;;5.65;1.95;;;15.30;99.90;;;;;;5107546;28;20603;-35
2022/07/15 01:10:39;;;;;;;7.68;1.73;;;15.30;99.90;;;;;;5107746;28;20567;-36
2022/07/15 01:13:05;;;;;;;2.85;1.95;;;15.30;99.90;;;;;;5108503;28;20485;-34
2022/07/15 01:15:32;;;;;;;7.50;1.92;;;15.30;99.90;;;;;;5107627;28;20031;-34
2022/07/15 01:17:59;;;;;;;5.07;1.80;;;15.30;99.90;;;;;;5108884;28;20016;-35
2022/07/15 01:20:25;;;;;;;4.20;1.42;;;15.30;99.90;;;;;;5107654;28;20023;-34
2022/07/15 01:22:50;;;;;;;6.72;1.80;;;15.30;99.90;;;;;;5107400;28;20043;-36
2022/07/15 01:25:16;;;;;;;7.05;1.85;;;15.30;99.90;;;;;;5108173;28;20096;-34
2022/07/15 01:27:41;;;;;;;5.78;1.70;;;15.30;99.90;;;;;;5108867;28;20096;-35
2022/07/15 01:30:08;;;;;;;6.10;1.75;;;15.30;99.90;;;;;;5107250;28;20027;-35
2022/07/15 01:32:33;;;;;;;4.63;1.50;;;15.30;99.90;;;;;;5108045;28;20544;-35
2022/07/15 01:35:00;;;;;;;2.15;1.30;;;15.30;99.90;;;;;;5108576;28;20067;-35
2022/07/15 01:37:26;;;;;;;3.13;1.33;;;15.30;99.90;;;;;;5107136;28;20134;-34
2022/07/15 01:39:52;;;;;;;6.80;1.70;;;15.30;99.90;;;;;;5108552;28;20133;-34
2022/07/15 01:42:17;;;;;;;3.88;1.67;;;15.20;99.90;;;;;;5107793;28;20030;-34
2022/07/15 01:44:43;;;;;;;6.13;1.80;;;15.20;99.90;;;;;;5106967;28;20028;-34
2022/07/15 01:47:08;;;;;;;6.70;1.65;;;15.20;99.90;;;;;;5108062;28;20016;-35
2022/07/15 01:49:34;;;;;;;5.90;1.50;;;15.20;99.90;;;;;;5106642;28;20411;-34
2022/07/15 01:52:01;;;;;;;5.60;1.70;;;15.20;99.90;;;;;;5107960;28;20487;-34
2022/07/15 01:54:29;;;;;;;4.38;1.60;;;15.20;99.90;;;;;;5106847;28;20061;-34
2022/07/15 01:56:55;;;;;;;9.07;2.08;;;15.20;99.90;;;;;;5107711;28;20012;-34
2022/07/15 01:59:22;;;;;;;5.80;1.52;;;15.20;99.90;;;;;;5108076;28;20068;-35
2022/07/15 02:01:48;;;;;;;6.90;1.67;;;15.10;99.90;;;;;;5107445;28;20016;-33
2022/07/15 02:04:14;;;;;;;4.07;1.40;;;15.20;99.90;;;;;;5107186;28;20028;-35
2022/07/15 02:06:40;;;;;;;4.03;1.52;;;15.20;99.90;;;;;;5107347;28;20039;-34
2022/07/15 02:09:05;;;;;;;6.07;1.58;;;15.20;99.90;;;;;;5107681;28;20020;-34
2022/07/15 02:11:31;;;;;;;3.63;1.48;;;15.20;99.90;;;;;;5105998;28;20043;-35
2022/07/15 02:13:59;;;;;;;6.25;1.50;;;15.20;99.90;;;;;;5107525;28;20055;-35
2022/07/15 02:16:25;;;;;;;3.95;1.35;;;15.30;99.90;;;;;;5107029;28;20023;-34
2022/07/15 02:18:51;;;;;;;3.70;1.33;;;15.30;99.90;;;;;;5106800;28;20028;-34
2022/07/15 02:21:16;;;;;;;3.15;1.00;;;15.40;99.90;;;;;;5106451;28;20076;-34
2022/07/15 02:23:42;;;;;;;2.55;1.10;;;15.40;99.90;;;;;;5106936;28;20058;-34
2022/07/15 02:26:09;;;;;;;3.67;1.45;;;15.50;99.90;;;;;;5106323;28;20016;-34
2022/07/15 02:28:34;;;;;;;2.53;1.00;;;15.50;99.90;;;;;;5106932;28;20535;-34
2022/07/15 02:31:00;;;;;;;3.55;1.35;;;15.60;99.90;;;;;;5107026;28;20016;-35
2022/07/15 02:33:25;;;;;;;6.72;1.30;;;15.50;99.90;;;;;;5105275;28;20072;-39
2022/07/15 02:35:51;;;;;;;3.05;1.10;;;15.50;99.90;;;;;;5106857;28;20391;-35
2022/07/15 02:38:17;;;;;;;4.47;1.30;;;15.50;99.90;;;;;;5106889;28;20471;-34
2022/07/15 02:40:43;;;;;;;4.40;1.30;;;15.50;99.90;;;;;;5105894;28;20028;-34
2022/07/15 02:43:09;;;;;;;4.22;1.30;;;15.50;99.90;;;;;;5106789;28;20020;-34
2022/07/15 02:45:36;;;;;;;3.17;1.33;;;15.50;99.90;;;;;;5106015;28;20112;-35
2022/07/15 02:48:03;;;;;;;3.88;1.40;;;15.60;99.90;;;;;;5106135;28;20104;-35
2022/07/15 02:50:29;;;;;;;3.08;1.17;;;15.60;99.90;;;;;;5106132;28;20030;-35
2022/07/15 02:52:55;;;;;;;4.93;1.50;;;15.50;99.90;;;;;;5106238;28;20023;-35
2022/07/15 02:55:20;;;;;;;5.82;1.27;;;15.50;99.90;;;;;;5106768;28;20122;-35
2022/07/15 02:57:46;;;;;;;4.93;1.35;;;15.60;99.90;;;;;;5105022;28;20053;-35
2022/07/15 03:00:14;;;;;;;5.68;1.63;;;15.60;99.90;;;;;;5101843;28;20055;-34
2022/07/15 03:02:40;;;;;;;4.18;1.55;;;15.50;99.90;;;;;;5099661;28;20019;-33
2022/07/15 03:05:06;;;;;;;4.65;1.73;;;15.50;99.90;;;;;;5106525;28;20034;-33
2022/07/15 03:07:32;;;;;;;4.80;1.58;;;15.40;99.90;;;;;;5104983;28;20034;-34
2022/07/15 03:09:58;;;;;;;6.07;1.55;;;15.40;99.90;;;;;;5105987;28;20032;-35
2022/07/15 03:12:23;;;;;;;4.22;1.25;;;15.30;99.90;;;;;;5105938;28;20070;-34
2022/07/15 03:14:49;;;;;;;3.53;1.30;;;15.30;99.90;;;;;;5105939;28;20080;-34
2022/07/15 03:17:15;;;;;;;4.07;1.45;;;15.30;99.90;;;;;;5106482;28;20510;-35
2022/07/15 03:19:40;;;;;;;5.65;1.50;;;15.20;99.90;;;;;;5107098;28;20104;-35
2022/07/15 03:22:06;;;;;;;2.65;1.27;;;15.20;99.90;;;;;;5105657;28;20039;-35
2022/07/15 03:24:32;;;;;;;4.75;1.30;;;15.20;99.90;;;;;;5105896;28;20445;-34
2022/07/15 03:26:58;;;;;;;3.80;1.42;;;15.20;99.90;;;;;;5106844;28;20081;-35
2022/07/15 03:29:24;;;;;;;2.78;1.30;;;15.20;99.90;;;;;;5105352;28;20028;-34
2022/07/15 03:31:50;;;;;;;4.40;1.30;;;15.30;99.90;;;;;;5106405;28;20019;-34
2022/07/15 03:34:15;;;;;;;3.60;1.20;;;15.30;99.90;;;;;;5105953;28;20036;-34
2022/07/15 03:36:41;;;;;;;1.65;1.00;;;15.40;99.90;;;;;;5105512;28;20125;-34
2022/07/15 03:39:08;;;;;;;2.85;1.17;;;15.40;99.90;;;;;;5106117;28;20019;-35
2022/07/15 03:41:34;;;;;;;4.28;1.17;;;15.40;99.90;;;;;;5106280;28;20470;-35
2022/07/15 03:44:00;;;;;;;2.22;1.05;;;15.40;99.90;;;;;;5105249;28;20028;-34
2022/07/15 03:46:27;;;;;;;1.73;0.80;;;15.40;99.90;;;;;;5105077;28;20059;-33
2022/07/15 03:48:53;;;;;;;1.48;1.10;;;15.40;99.90;;;;;;5106036;28;20024;-33
2022/07/15 03:51:18;;;;;;;4.07;1.20;;;15.40;99.90;;;;;;5105523;28;20045;-35
2022/07/15 03:53:44;;;;;;;4.57;1.23;;;15.40;99.90;;;;;;5105300;28;20341;-34
2022/07/15 03:56:10;;;;;;;2.22;0.80;;;15.40;99.90;;;;;;5105343;28;20490;-33
2022/07/15 03:58:35;;;;;;;3.03;1.17;;;15.40;99.90;;;;;;5105315;28;20024;-34
2022/07/15 04:01:01;;;;;;;2.90;1.08;;;15.40;99.90;;;;;;5106405;28;20576;-33
2022/07/15 04:03:27;;;;;;;4.30;1.27;;;15.40;99.90;;;;;;5104957;28;20342;-35
2022/07/15 04:05:52;;;;;;;2.95;1.15;;;15.40;99.90;;;;;;5106277;28;20532;-34
2022/07/15 04:08:18;;;;;;;2.08;1.08;;;15.40;99.90;;;;;;5105767;28;20031;-34
2022/07/15 04:10:43;;;;;;;2.38;1.00;;;15.40;99.90;;;;;;5104974;28;20011;-35
2022/07/15 04:13:09;;;;;;;4.97;1.10;;;15.40;99.90;;;;;;5106219;28;20031;-34
2022/07/15 04:15:35;;;;;;;4.25;1.02;;;15.40;99.90;;;;;;5105023;28;20051;-35
2022/07/15 04:18:01;;;;;;;3.83;0.90;;;15.40;99.90;;;;;;5105413;28;20040;-34
2022/07/15 04:20:27;;;;;;;2.85;0.90;;;15.40;99.90;;;;;;5105495;28;20414;-35
2022/07/15 04:22:53;;;;;;;1.67;0.93;;;15.30;99.90;;;;;;5105799;28;20050;-35
2022/07/15 04:25:20;;;;;;;3.33;1.00;;;15.30;99.90;;;;;;5105146;28;20012;-34
2022/07/15 04:27:50;;;;;;;4.13;1.13;;;15.30;99.90;;;;;;5105691;28;20028;-33
2022/07/15 04:30:15;;;;;;;1.33;0.80;;;15.20;99.90;;;;;;5105556;28;20027;-34
2022/07/15 04:32:42;;;;;;;4.32;1.75;;;15.20;99.90;;;;;;5105041;28;20028;-35
2022/07/15 04:35:08;;;;;;;3.13;1.10;;;15.20;99.90;;;;;;5104900;28;20609;-35
2022/07/15 04:37:33;;;;;;;4.22;1.30;;;15.10;99.90;;;;;;5105060;28;20027;-35
2022/07/15 04:39:59;;;;;;;3.67;1.13;;;15.10;99.90;;;;;;5104759;28;20077;-34
2022/07/15 04:42:25;;;;;;;3.60;1.08;;;15.10;99.90;;;;;;5104880;28;20031;-34
2022/07/15 04:44:50;;;;;;;2.55;0.90;;;15.00;99.90;;;;;;5108434;28;20024;-34
2022/07/15 04:47:16;;;;;;;2.58;1.00;;;15.00;99.90;;;;;;5108225;28;20016;-34
2022/07/15 04:52:27;;;;;;;2.97;1.20;;;15.00;99.90;;;;;;5105856;28;20034;-34
2022/07/15 04:54:53;;;;;;;3.75;1.40;;;14.90;99.90;;;;;;5109346;28;20043;-35
2022/07/15 04:57:19;;;;;;;4.93;1.52;;;14.90;99.90;;;;;;5108664;28;20027;-34
2022/07/15 04:59:45;;;;;;;4.85;1.10;;;14.80;99.90;;;;;;5108046;28;20020;-35
2022/07/15 05:02:10;;;;;;;2.45;1.00;;;14.80;99.90;;;;;;5108991;28;20034;-34
2022/07/15 05:04:36;;;;;;;1.92;0.90;;;14.80;99.90;;;;;;5108303;28;20460;-35
2022/07/15 05:07:02;;;;;;;3.85;1.75;;;14.90;99.90;;;;;;5108178;28;20027;-34
2022/07/15 05:09:27;;;;;;;4.10;1.08;;;14.90;99.90;;;;;;5108900;28;20094;-35
2022/07/15 05:11:53;;;;;;;2.38;0.80;;;14.90;99.90;;;;;;5108423;28;20481;-36
2022/07/15 05:14:18;;;;;;;3.65;1.25;;;14.90;99.90;;;;;;5107689;28;20523;-34
2022/07/15 05:16:44;;;;;;;4.03;1.00;;;15.00;99.90;;;;;;5108744;28;20524;-33
2022/07/15 05:19:10;;;;;;;4.15;1.10;;;15.00;99.90;;;;;;5109182;28;20110;-35
2022/07/15 05:21:35;;;;;;;2.45;0.90;;;15.00;99.90;;;;;;5107561;28;20023;-35
2022/07/15 05:24:01;;;;;;;4.57;1.40;;;15.10;99.90;;;;;;5108320;28;20055;-35
2022/07/15 05:26:26;;;;;;;3.33;1.02;;;15.10;99.90;;;;;;5107933;28;20456;-35
2022/07/15 05:28:52;;;;;;;2.95;0.90;;;15.10;99.90;;;;;;5107508;28;20208;-34
2022/07/15 05:31:17;;;;;;;2.83;1.08;;;15.10;99.90;;;;;;5108408;28;20471;-34
2022/07/15 05:33:43;;;;;;;2.05;1.00;;;15.10;99.90;;;;;;5108532;28;20110;-34
2022/07/15 05:36:13;;;;;;;2.72;0.90;;;15.10;99.90;;;;;;5107571;28;20031;-35
2022/07/15 05:38:40;;;;;;;2.20;0.98;;;15.10;99.90;;;;;;5107939;28;20446;-34
2022/07/15 05:41:05;;;;;;;5.30;1.40;;;15.20;99.90;;;;;;5105615;28;20117;-35
2022/07/15 05:43:31;;;;;;;5.55;1.38;;;15.20;99.90;;;;;;5105232;28;20111;-36
2022/07/15 05:45:56;;;;;;;3.88;1.33;;;15.20;99.90;;;;;;5108390;28;20028;-36
2022/07/15 05:48:22;;;;;;;4.28;1.27;;;15.20;99.90;;;;;;5104425;28;20043;-34
2022/07/15 05:50:49;;;;;;;2.97;0.90;;;15.30;99.90;;;;;;5106471;28;20129;-34
2022/07/15 05:53:14;;;;;;;5.68;1.58;;;15.30;99.90;;;;;;5107222;28;20039;-34
2022/07/15 05:55:40;;;;;;;4.20;1.35;;;15.40;99.90;;;;;;5105493;28;20027;-34
2022/07/15 05:58:07;;;;;;;5.22;1.48;;;15.40;99.90;;;;;;5105761;28;20087;-36
2022/07/15 06:00:34;;;;;;;3.90;1.40;;;15.40;99.90;;;;;;5105749;28;20531;-34
2022/07/15 06:02:59;;;;;;;3.85;1.10;;;15.40;99.90;;;;;;5105766;28;20199;-37
2022/07/15 06:05:25;;;;;;;3.25;0.90;;;15.50;99.90;;;;;;5106670;28;20035;-34
2022/07/15 06:07:50;;;;;;;4.45;1.45;;;15.60;99.90;;;;;;5106915;28;20016;-35
2022/07/15 06:10:16;;;;;;;6.25;1.30;;;15.60;99.90;;;;;;5105748;28;20115;-35
2022/07/15 06:12:41;;;;;;;3.63;1.35;;;15.60;99.90;;;;;;5105786;28;20032;-35
2022/07/15 06:15:08;;;;;;;2.35;0.85;;;15.70;99.90;;;;;;5106268;28;20034;-34
2022/07/15 06:17:34;;;;;;;3.75;1.00;;;15.80;99.90;;;;;;5105224;28;20403;-34
2022/07/15 06:20:00;;;;;;;2.65;0.90;;;15.90;99.90;;;;;;5106385;28;20049;-33
2022/07/15 06:22:26;;;;;;;2.30;0.80;;;15.90;99.90;;;;;;5105320;28;20499;-34
2022/07/15 06:24:51;;;;;;;3.63;1.35;;;16.00;99.90;;;;;;5105858;28;20042;-33
2022/07/15 06:27:17;;;;;;;5.47;1.10;;;16.00;99.90;;;;;;5106698;28;20460;-35
2022/07/15 06:29:42;;;;;;;4.15;1.02;;;16.00;99.90;;;;;;5106275;28;20126;-34
2022/07/15 06:32:08;;;;;;;4.63;1.00;;;16.10;99.90;;;;;;5106234;28;20118;-35
2022/07/15 06:34:34;;;;;;;4.47;1.30;;;16.10;99.90;;;;;;5106291;28;20082;-35
2022/07/15 06:36:59;;;;;;;3.28;0.98;;;16.20;99.90;;;;;;5106361;28;20023;-35
2022/07/15 06:39:25;;;;;;;3.60;0.95;;;16.30;99.90;;;;;;5105551;28;20039;-36
2022/07/15 06:41:51;;;;;;;2.35;0.90;;;16.30;99.90;;;;;;5106956;28;20051;-34
2022/07/15 06:44:16;;;;;;;2.50;0.70;;;16.30;99.90;;;;;;5106527;28;20051;-34
2022/07/15 06:46:42;;;;;;;2.63;0.80;;;16.40;99.90;;;;;;5105813;28;20378;-35
2022/07/15 06:49:08;;;;;;;2.95;0.68;;;16.40;99.90;;;;;;5106319;28;20107;-34
2022/07/15 06:51:34;;;;;;;1.45;0.70;;;16.50;99.90;;;;;;5106146;28;20028;-35
2022/07/15 06:53:59;;;;;;;2.42;0.90;;;16.50;99.90;;;;;;5105760;28;20035;-35
2022/07/15 06:56:25;;;;;;;3.25;0.70;;;16.50;99.80;;;;;;5102117;28;20023;-35
2022/07/15 06:58:50;;;;;;;7.07;1.20;;;16.50;99.70;;;;;;5106755;28;20031;-36
2022/07/15 07:01:16;;;;;;;2.00;0.70;;;16.50;99.10;;;;;;5104137;28;20422;-36
2022/07/15 07:03:41;;;;;;;2.97;0.90;;;16.60;99.10;;;;;;5106032;28;20047;-35
2022/07/15 07:06:08;;;;;;;3.13;0.90;;;16.60;98.90;;;;;;5105841;28;20027;-35
2022/07/15 07:08:33;;;;;;;2.67;0.90;;;16.70;98.90;;;;;;5084537;28;20031;-34
2022/07/15 07:10:59;;;;;;;1.60;0.70;;;16.70;98.90;;;;;;5103586;28;20645;-35
2022/07/15 07:13:24;;;;;;;2.38;0.73;;;16.80;98.80;;;;;;5104863;28;20026;-35
2022/07/15 07:15:50;;;;;;;1.20;0.43;;;16.80;98.80;;;;;;5106666;28;20141;-34
2022/07/15 07:18:16;;;;;;;2.65;0.90;;;16.80;98.80;;;;;;5105925;28;20118;-34
2022/07/15 07:20:43;;;;;;;1.65;0.70;;;16.90;98.70;;;;;;5104963;28;20034;-33
2022/07/15 07:23:10;;;;;;;3.20;0.95;;;16.90;98.70;;;;;;5105894;28;20589;-35
2022/07/15 07:25:35;;;;;;;3.67;1.45;;;17.00;98.50;;;;;;5105010;28;20417;-35
2022/07/15 07:28:03;;;;;;;2.42;0.88;;;17.00;98.40;;;;;;5105676;28;20539;-35
2022/07/15 07:30:29;;;;;;;6.43;1.35;;;17.10;98.30;;;;;;5106294;28;20011;-34
2022/07/15 07:32:55;;;;;;;4.60;1.00;;;17.10;97.50;;;;;;5106471;28;20032;-37
2022/07/15 07:35:21;;;;;;;3.58;1.25;;;17.00;97.10;;;;;;5104243;28;20463;-34
2022/07/15 07:37:46;;;;;;;1.98;0.85;;;17.10;97.40;;;;;;5105823;28;20042;-36
2022/07/15 07:40:13;;;;;;;2.72;0.70;;;17.10;97.50;;;;;;5105873;28;20111;-36
2022/07/15 07:42:40;;;;;;;1.92;0.80;;;17.20;97.50;;;;;;5104594;28;20031;-34
2022/07/15 07:45:05;;;;;;;1.15;0.60;;;17.40;97.40;;;;;;5106080;28;20038;-35
2022/07/15 07:47:37;;;;;;;1.38;0.70;;;17.40;97.20;;;;;;5105270;28;20100;-35
2022/07/15 07:50:03;;;;;;;1.80;0.60;;;17.50;97.20;;;;;;5085024;28;20039;-35
2022/07/15 07:52:28;;;;;;;3.70;0.75;;;17.60;97.20;;;;;;5099865;28;20027;-35
2022/07/15 07:54:54;;;;;;;2.78;0.80;;;17.70;97.10;;;;;;5106130;28;20043;-35
2022/07/15 07:57:19;;;;;;;2.38;0.63;;;17.90;96.90;;;;;;5105188;28;20445;-35
2022/07/15 07:59:45;;;;;;;3.05;0.85;;;17.90;96.50;;;;;;5105170;28;20058;-34
2022/07/15 08:02:11;;;;;;;1.67;0.80;;;18.00;96.40;;;;;;5105376;28;20502;-35
2022/07/15 08:04:37;;;;;;;0.82;0.68;;;18.00;95.70;;;;;;5104538;28;20112;-35
2022/07/15 08:07:05;;;;;;;2.00;0.60;;;17.90;96.00;;;;;;5106181;28;20593;-36
2022/07/15 08:09:30;;;;;;;2.08;0.70;;;18.00;96.00;;;;;;5104722;28;20027;-36
2022/07/15 08:11:56;;;;;;;1.77;0.60;;;18.00;95.90;;;;;;5105472;28;20188;-35
2022/07/15 08:14:21;;;;;;;2.40;0.60;;;18.10;96.00;;;;;;5104694;28;20036;-35
2022/07/15 08:16:47;;;;;;;2.00;0.63;;;18.10;95.80;;;;;;5105416;28;20023;-35
2022/07/15 08:19:16;;;;;;;3.88;0.80;;;18.10;95.70;;;;;;5107615;28;20100;-34
2022/07/15 08:21:43;;;;;;;2.95;0.75;;;18.20;95.60;;;;;;5109193;28;20027;-34
2022/07/15 08:24:09;;;;;;;1.58;0.60;;;18.20;95.30;;;;;;5108612;28;20982;-35
2022/07/15 08:26:35;;;;;;;1.50;0.40;;;18.30;95.10;;;;;;5109354;28;20429;-36
2022/07/15 08:29:01;;;;;;;1.23;0.40;;;18.40;95.20;;;;;;5107512;28;20027;-35
2022/07/15 08:31:27;;;;;;;1.27;0.60;;;18.50;94.90;;;;;;5108099;28;20034;-34
2022/07/15 08:33:53;;;;;;;2.85;0.70;;;18.60;94.20;;;;;;5109000;28;20114;-35
2022/07/15 08:36:19;;;;;;;1.88;0.68;;;18.80;93.80;;;;;;5108983;28;20399;-35
2022/07/15 08:38:46;;;;;;;1.00;0.50;;;18.90;93.50;;;;;;5107465;28;20046;-34
2022/07/15 08:41:13;;;;;;;1.52;0.50;;;19.10;93.30;;;;;;5109427;28;20023;-34
2022/07/15 08:43:39;;;;;;;2.20;0.65;;;19.20;93.10;;;;;;5108372;28;20116;-34
2022/07/15 08:46:06;;;;;;;1.67;0.55;;;19.30;93.10;;;;;;5108641;28;20157;-35
2022/07/15 08:48:35;;;;;;;2.80;0.70;;;19.30;93.00;;;;;;5108353;28;20028;-35
2022/07/15 08:51:03;;;;;;;2.72;1.27;;;19.40;93.10;;;;;;5108985;28;20141;-35
2022/07/15 08:53:30;;;;;;;2.38;0.60;;;19.40;92.80;;;;;;5107509;28;20024;-34
2022/07/15 08:55:56;;;;;;;1.95;0.75;;;19.40;92.90;;;;;;5109551;28;20070;-35
2022/07/15 08:58:22;;;;;;;1.48;0.40;;;19.30;92.60;;;;;;5108408;28;20019;-34
2022/07/15 09:00:49;;;;;;;2.03;0.70;;;19.30;92.70;;;;;;5107989;28;20467;-34
2022/07/15 09:03:15;;;;;;;1.42;0.52;;;19.30;92.70;;;;;;5107688;28;20138;-34
2022/07/15 09:05:41;;;;;;;3.22;0.70;;;19.40;92.60;;;;;;5107321;28;20026;-35
2022/07/15 09:08:11;;;;;;;2.13;1.00;;;19.40;92.50;;;;;;5108903;28;20019;-34
2022/07/15 09:10:49;;;;;;;1.98;0.80;;;19.50;92.50;;;;;;5108019;28;20118;-34
2022/07/15 09:13:34;;;;;;;1.38;0.50;;;19.60;92.50;;;;;;5108223;28;20038;-36
2022/07/15 09:16:09;;;;;;;1.27;0.52;;;19.70;92.40;;;;;;5107551;28;20036;-35
2022/07/15 09:18:40;;;;;;;2.17;0.70;;;19.80;92.40;;;;;;5108024;28;20027;-35
2022/07/15 09:21:25;;;;;;;2.83;0.88;;;19.90;92.40;;;;;;5108109;28;20024;-35
2022/07/15 09:23:52;;;;;;;2.08;0.70;;;20.00;92.00;;;;;;5108635;28;20043;-36
2022/07/15 09:26:33;;;;;;;2.08;0.85;;;19.90;91.40;;;;;;5108283;28;20034;-35
2022/07/15 09:28:59;;;;;;;3.08;0.95;;;19.80;91.70;;;;;;5107457;28;20027;-36
2022/07/15 09:34:17;;;;;;;1.67;0.60;;;19.80;91.30;;;;;;5107261;28;20046;-33
2022/07/15 09:36:50;;;;;;;2.30;0.50;;;19.80;91.30;;;;;;5107646;28;20134;-34
2022/07/15 09:39:18;;;;;;;2.42;0.75;;;19.80;91.20;;;;;;5107838;28;20122;-35
2022/07/15 09:41:44;;;;;;;1.45;0.70;;;19.90;91.00;;;;;;5106794;28;20419;-35
2022/07/15 09:44:16;;;;;;;2.63;1.20;;;19.90;91.00;;;;;;5108323;28;20035;-35
2022/07/15 09:46:43;;;;;;;1.27;0.60;;;20.00;91.10;;;;;;5108036;28;20062;-33
2022/07/15 09:49:10;;;;;;;4.43;0.73;;;20.00;90.90;;;;;;5107508;28;20307;-36
2022/07/15 09:51:48;;;;;;;1.15;0.47;;;20.00;90.80;;;;;;5107582;28;20034;-34
2022/07/15 09:54:14;;;;;;;1.27;0.60;;;20.00;91.10;;;;;;5087173;28;20032;-35
2022/07/15 09:56:39;;;;;;;1.05;0.50;;;20.00;90.90;;;;;;5102301;28;20020;-38
2022/07/15 09:59:06;;;;;;;3.40;0.80;;;19.90;90.80;;;;;;5108276;28;20110;-34
2022/07/15 10:01:32;;;;;;;1.35;0.70;;;19.90;90.80;;;;;;5107135;28;20032;-35
2022/07/15 10:03:59;;;;;;;2.92;0.50;;;19.90;90.30;;;;;;5106959;28;20024;-35
2022/07/15 10:06:27;;;;;;;1.25;0.40;;;19.90;90.20;;;;;;5105460;28;20023;-34
2022/07/15 10:08:53;;;;;;;0.45;0.38;;;20.00;90.20;;;;;;5106280;28;20034;-34
2022/07/15 10:11:20;;;;;;;0.63;0.35;;;20.00;90.00;;;;;;5106664;28;20089;-34
2022/07/15 10:14:09;;;;;;;1.13;0.63;;;20.10;90.10;;;;;;5106674;28;20032;-34
2022/07/15 10:16:49;;;;;;;1.52;0.50;;;20.20;90.10;;;;;;5105200;28;20027;-34
2022/07/15 10:19:39;;;;;;;1.90;0.52;;;20.50;89.20;;;;;;5106462;28;20054;-37
2022/07/15 10:22:26;;;;;;;1.85;0.50;;;20.60;89.00;;;;;;5106448;28;20055;-34
2022/07/15 10:25:08;;;;;;;1.90;0.50;;;20.80;89.00;;;;;;5105619;28;20043;-35
2022/07/15 10:27:55;;;;;;;1.70;0.40;;;20.80;88.60;;;;;;5106219;28;20522;-35
2022/07/15 10:30:23;;;;;;;0.60;0.38;;;20.80;88.40;;;;;;5085542;28;20484;-33
2022/07/15 10:33:04;;;;;;;1.80;0.80;;;20.90;88.60;;;;;;5101262;28;20024;-34
2022/07/15 10:35:42;;;;;;;2.72;0.60;;;20.90;88.40;;;;;;5085576;28;20487;-34
2022/07/15 10:38:32;;;;;;;2.00;0.68;;;20.80;87.90;;;;;;5101908;28;20019;-35
2022/07/15 10:41:02;;;;;;;1.77;0.55;;;20.80;88.10;;;;;;5103781;28;20068;-35
2022/07/15 10:43:47;;;;;;;1.27;0.40;;;20.90;88.30;;;;;;5105738;28;20080;-36
2022/07/15 10:46:15;;;;;;;0.80;0.40;;;21.10;88.10;;;;;;5105993;28;20039;-34
2022/07/15 10:48:46;;;;;;;2.70;0.50;;;21.10;87.40;;;;;;5106061;28;20027;-34
2022/07/15 10:51:13;;;;;;;1.08;0.60;;;21.10;86.50;;;;;;5105493;28;20575;-36
2022/07/15 10:53:47;;;;;;;1.15;0.50;;;21.10;86.50;;;;;;5104701;28;20547;-35
2022/07/15 10:56:30;;;;;;;1.00;0.50;;;21.00;86.80;;;;;;5086341;28;20039;-35
2022/07/15 10:59:15;;;;;;;1.38;0.63;;;21.00;87.00;;;;;;5101522;28;20492;-35
2022/07/15 11:01:43;;;;;;;2.65;0.55;;;21.00;86.90;;;;;;5105923;28;20382;-36
2022/07/15 11:04:25;;;;;;;1.65;0.63;;;21.10;86.80;;;;;;5106501;28;20027;-36
2022/07/15 11:07:03;;;;;;;2.13;0.73;;;21.10;86.20;;;;;;5105135;28;20370;-35
2022/07/15 11:09:47;;;;;;;1.20;0.50;;;21.10;86.50;;;;;;5105053;28;20769;-35
2022/07/15 11:12:14;;;;;;;1.48;0.68;;;21.20;86.40;;;;;;5105413;28;20695;-35
2022/07/15 11:14:55;;;;;;;2.17;0.60;;;21.30;86.40;;;;;;5106216;28;20115;-35
2022/07/15 11:17:39;;;;;;;1.13;0.40;;;21.30;86.30;;;;;;5106184;28;20023;-36
2022/07/15 11:20:08;;;;;;;2.20;0.60;;;21.40;86.20;;;;;;5104118;28;20467;-34
2022/07/15 11:22:35;;;;;;;1.95;0.47;;;21.40;86.20;;;;;;5105751;28;20143;-35
2022/07/15 11:25:03;;;;;;;2.65;0.70;;;21.40;86.30;;;;;;5106136;28;20633;-36
2022/07/15 11:27:29;;;;;;;2.38;0.60;;;21.40;86.20;;;;;;5104887;28;20060;-36
2022/07/15 11:30:01;;;;;;;1.70;0.60;;;21.40;86.00;;;;;;5105935;28;20066;-36
2022/07/15 11:32:28;;;;;;;1.93;0.60;;;21.40;85.80;;;;;;5085766;28;20023;-35
2022/07/15 11:34:55;;;;;;;0.73;0.50;;;21.40;85.90;;;;;;5099738;28;20487;-35
2022/07/15 11:37:30;;;;;;;2.60;0.60;;;21.50;85.70;;;;;;5105848;28;20078;-35
2022/07/15 11:40:10;;;;;;;0.73;0.50;;;21.60;85.50;;;;;;5105698;28;20054;-35
2022/07/15 11:45:38;;;;;;;1.27;0.40;;;21.80;84.60;;;;;;5106191;28;20124;-35
2022/07/15 11:48:06;;;;;;;0.77;0.30;;;21.80;84.80;;;;;;5083331;28;20161;-36
2022/07/15 11:50:36;;;;;;;1.63;0.73;;;21.90;84.70;;;;;;5098818;28;20062;-37
2022/07/15 11:53:11;;;;;;;0.95;0.40;;;21.90;84.60;;;;;;5105531;28;20379;-35
2022/07/15 11:55:54;;;;;;;1.52;0.40;;;21.80;84.20;;;;;;5108456;28;20035;-36
2022/07/15 11:58:38;;;;;;;1.55;0.40;;;21.80;84.70;;;;;;5089116;28;20548;-36
2022/07/15 12:01:07;;;;;;;0.82;0.40;;;21.60;84.20;;;;;;5107301;28;20451;-33
2022/07/15 12:03:42;;;;;;;1.90;0.60;;;21.60;84.50;;;;;;5108929;28;20068;-34
2022/07/15 12:06:12;;;;;;;2.05;0.60;;;21.50;84.60;;;;;;5109167;28;20518;-35
2022/07/15 12:08:44;;;;;;;1.23;0.77;;;21.60;83.40;;;;;;5088796;28;20093;-35
2022/07/15 12:11:21;;;;;;;1.17;0.50;;;21.50;83.40;;;;;;5105792;28;20026;-36
2022/07/15 12:13:49;;;;;;;1.33;0.40;;;21.50;83.40;;;;;;5089208;28;20020;-35
2022/07/15 12:16:19;;;;;;;1.35;0.43;;;21.50;83.40;;;;;;5102890;28;20032;-36
2022/07/15 12:18:46;;;;;;;4.43;0.55;;;21.50;83.20;;;;;;5109347;28;20123;-35
2022/07/15 12:21:12;;;;;;;1.10;0.50;;;21.60;83.30;;;;;;5109777;28;20162;-33
2022/07/15 12:23:37;;;;;;;1.48;0.35;;;21.60;83.30;;;;;;5108675;28;20163;-35
2022/07/15 12:26:08;;;;;;;0.57;0.40;;;21.70;83.20;;;;;;5109472;28;20027;-35
2022/07/15 12:28:35;;;;;;;1.20;0.43;;;21.80;83.10;;;;;;5108468;28;20031;-35
2022/07/15 12:31:01;;;;;;;1.27;0.47;;;21.90;83.10;;;;;;5108883;28;20024;-34
2022/07/15 12:33:27;;;;;;;1.58;0.60;;;22.00;83.10;;;;;;5109257;28;20383;-37
2022/07/15 12:36:22;;;;;;;0.93;0.30;;;22.10;82.70;;;;;;5109106;28;20035;-34
2022/07/15 12:39:09;;;;;;;1.27;0.55;;;22.20;81.70;;;;;;5108780;28;20070;-35
2022/07/15 12:41:37;;;;;;;3.10;0.60;;;22.10;80.90;;;;;;5109049;28;20514;-34
2022/07/15 12:44:04;;;;;;;1.67;0.70;;;22.10;81.20;;;;;;5108824;28;20074;-35
2022/07/15 12:46:57;;;;;;;1.30;0.50;;;22.00;81.20;;;;;;5108827;28;20547;-35
2022/07/15 12:49:38;;;;;;;0.90;0.50;;;22.10;81.30;;;;;;5109278;28;20100;-35
2022/07/15 12:52:23;;;;;;;1.10;0.43;;;22.00;80.80;;;;;;5108861;28;20024;-36
2022/07/15 12:54:51;;;;;;;1.15;0.40;;;22.00;80.60;;;;;;5109289;28;20042;-35
2022/07/15 12:57:21;;;;;;;1.45;0.43;;;22.10;80.50;;;;;;5108730;28;20502;-37
2022/07/15 12:59:50;;;;;;;2.13;0.70;;;22.10;80.60;;;;;;5108331;28;20080;-35
2022/07/15 13:02:16;;;;;;;1.30;0.40;;;22.10;79.90;;;;;;5108812;28;20032;-33